Terminal Aerodrome Forecast
Issued by NWS

Home | Current Version | Previous Version | Text Only | Print | Product List | Glossary On
Versions: 1 2 3 4 5 6 7 8 9 10 11 12 13 14 15 16 17 18 19 20 21 22
000
FTUS42 KFFC 281400 AAA
TAFPDK
TAF AMD
KPDK 281407Z 2814/2912 29010KT P6SM SCT020 BKN030
      TEMPO 2814/2816 BKN020
     FM281600 29008G16KT P6SM SCT050 BKN080
     FM281800 31010G18KT P6SM SCT100
     FM290100 32008KT P6SM SKC=

USA.gov is the U.S. government's official web portal to all federal, state and local government web resources and services.